McGillstown, Pennsylvania
Current Conditions -  °F | °C
As of 3:58 AM on Saturday 20 Dec 2014 (Local Time) from KMUI Reporting Station
Overcast Overcast  
Wind Chill: 24°   Ceiling: 3100
Heat Index: 31°   Visibility: 10mi
Dew Point: 19°   Wind: 7mph
Humidity: 60%   Direction: 340°NNW
Pressure: 30.24"   Gusts: NA
Location:  40.4723°N, 76.5465°W
Report Text: KMUI 200858Z AUTO 34006KT 10SM OVC031 00/M07 A3024 RMK AO2 SLP248 T10051074 52014
Loading
Personal Weather Stations






























Interactive Weather Map New forecast layout! Learn more

10-Day Weather Forecast

Advertisements
Track Severe Weather on mobile